Terminal Aerodrome Forecast
Issued by NWS Hastings, NE

Home | Current Version | Previous Version | Text Only | Print | Product List | Glossary On
Versions: 1 2 3 4 5 6 7 8 9 10 11 12 13 14 15 16 17 18 19 20
000
FTUS43 KGID 241948 AAA
TAFGRI
TAF AMD
KGRI 241948Z 2420/2518 20012G18KT P6SM BKN020
     FM242100 19012KT P6SM BKN050
     FM250000 19010KT P6SM SCT100
     FM250200 VRB06KT P6SM SCT150
     FM250800 31010KT P6SM FEW250
     FM251400 32016G24KT P6SM SKC=

USA.gov is the U.S. government's official web portal to all federal, state and local government web resources and services.